Time;durP1;ratioP1;P1;durP2;ratioP2;P2;SDS_P1;SDS_P2;PMS_P1;PMS_P2;Temp;Humidity;BMP_temperature;BMP_pressure;BME280_temperature;BME280_humidity;BME280_pressure;Samples;Min_cycle;Max_cycle;Signal;HPM_P1;HPM_P2
2020/12/30 00:00:32;;;;;;;8.30;7.00;;;5.00;99.90;;;;;;5080727;28;20458;-79
2020/12/30 00:02:58;;;;;;;8.27;6.93;;;5.00;99.90;;;;;;5096386;28;20188;-79
2020/12/30 00:05:23;;;;;;;10.43;6.90;;;4.70;99.90;;;;;;5100373;28;20518;-79
2020/12/30 00:07:49;;;;;;;7.73;6.60;;;4.80;99.90;;;;;;5073905;28;20763;-79
2020/12/30 00:10:18;;;;;;;8.20;6.57;;;4.90;99.90;;;;;;5090809;28;20557;-79
2020/12/30 00:12:44;;;;;;;9.13;7.00;;;4.90;99.90;;;;;;5088282;28;20820;-79
2020/12/30 00:15:11;;;;;;;9.10;7.40;;;4.70;99.90;;;;;;5045824;28;20525;-79
2020/12/30 00:17:40;;;;;;;8.07;6.40;;;4.60;99.90;;;;;;5091888;28;20485;-79
2020/12/30 00:20:12;;;;;;;9.93;6.90;;;4.70;99.90;;;;;;5090700;28;20471;-79
2020/12/30 00:22:38;;;;;;;10.27;7.43;;;4.90;99.90;;;;;;5073610;28;20415;-79
2020/12/30 00:25:06;;;;;;;8.00;6.60;;;5.00;99.90;;;;;;5091379;28;20418;-79
2020/12/30 00:27:32;;;;;;;8.30;6.97;;;4.90;99.90;;;;;;5091443;28;21058;-79
2020/12/30 00:29:58;;;;;;;8.00;7.10;;;4.70;99.90;;;;;;5090523;28;20433;-79
2020/12/30 00:32:24;;;;;;;9.10;7.43;;;4.80;99.90;;;;;;5077087;28;20422;-79
2020/12/30 00:34:49;;;;;;;7.80;6.93;;;4.90;99.90;;;;;;5091267;28;20426;-79
2020/12/30 00:37:15;;;;;;;7.17;6.20;;;4.80;99.90;;;;;;5073433;28;20216;-79
2020/12/30 00:39:41;;;;;;;7.80;6.00;;;4.90;99.90;;;;;;5091560;28;20283;-79
2020/12/30 00:42:09;;;;;;;11.60;7.20;;;5.00;99.90;;;;;;5089740;28;20191;-79
2020/12/30 00:44:37;;;;;;;9.47;6.43;;;4.90;99.90;;;;;;5089621;28;20195;-79
2020/12/30 00:47:03;;;;;;;9.13;7.23;;;4.80;99.90;;;;;;5090312;28;20427;-79
2020/12/30 00:49:31;;;;;;;8.93;7.17;;;4.60;99.90;;;;;;5090267;28;20682;-79
2020/12/30 00:51:57;;;;;;;9.80;6.60;;;4.80;99.90;;;;;;5090081;28;20185;-79
2020/12/30 00:54:24;;;;;;;8.53;6.87;;;4.70;99.90;;;;;;5090657;28;20430;-79
2020/12/30 00:56:51;;;;;;;8.27;6.80;;;4.60;99.90;;;;;;5091392;28;21000;-79
2020/12/30 00:59:18;;;;;;;8.30;7.10;;;4.50;99.90;;;;;;5091263;28;20411;-79
2020/12/30 01:01:44;;;;;;;12.00;7.20;;;4.60;99.90;;;;;;5091417;28;20430;-79
2020/12/30 01:04:10;;;;;;;10.70;7.30;;;4.80;99.90;;;;;;5089461;28;20515;-79
2020/12/30 01:06:36;;;;;;;7.40;6.30;;;4.80;99.90;;;;;;5091073;28;20430;-79
2020/12/30 01:09:05;;;;;;;8.97;7.43;;;4.90;99.90;;;;;;5091246;28;20193;-79
2020/12/30 01:11:30;;;;;;;8.33;6.93;;;4.90;99.90;;;;;;5091089;28;20425;-79
2020/12/30 01:13:57;;;;;;;8.40;6.93;;;4.70;99.90;;;;;;5069128;28;20423;-79
2020/12/30 01:16:24;;;;;;;9.13;6.97;;;4.90;99.90;;;;;;5090832;28;20287;-80
2020/12/30 01:18:49;;;;;;;9.07;6.93;;;4.70;99.90;;;;;;5089687;28;20458;-79
2020/12/30 01:21:16;;;;;;;9.23;6.90;;;4.80;99.90;;;;;;5077219;28;21253;-79
2020/12/30 01:23:42;;;;;;;8.70;7.23;;;4.90;99.90;;;;;;5090343;28;20514;-79
2020/12/30 01:26:11;;;;;;;9.67;7.40;;;4.90;99.90;;;;;;5077236;28;20448;-79
2020/12/30 01:28:36;;;;;;;9.17;7.10;;;4.80;99.90;;;;;;5090553;28;20426;-79
2020/12/30 01:31:03;;;;;;;10.70;7.07;;;5.10;99.90;;;;;;5088676;28;20429;-79
2020/12/30 01:33:28;;;;;;;8.93;7.20;;;5.10;99.90;;;;;;5090148;28;20216;-79
2020/12/30 01:35:54;;;;;;;9.63;7.43;;;4.80;99.90;;;;;;5090666;28;20929;-79
2020/12/30 01:38:23;;;;;;;10.23;7.40;;;5.10;99.90;;;;;;5089956;28;20212;-79
2020/12/30 01:40:56;;;;;;;9.27;7.63;;;4.90;99.90;;;;;;5076940;28;20461;-80
2020/12/30 01:43:21;;;;;;;9.73;7.30;;;4.80;99.90;;;;;;5088923;28;21117;-80
2020/12/30 01:45:54;;;;;;;7.97;6.50;;;4.80;99.90;;;;;;5090793;28;20410;-80
2020/12/30 01:48:23;;;;;;;9.13;6.80;;;4.80;99.90;;;;;;5090523;28;20688;-80
2020/12/30 01:50:50;;;;;;;9.20;6.77;;;4.50;99.90;;;;;;5090468;28;20433;-80
2020/12/30 01:53:16;;;;;;;9.40;7.10;;;4.80;99.90;;;;;;5090392;28;20507;-80
2020/12/30 01:55:45;;;;;;;8.10;7.07;;;4.80;99.90;;;;;;5089492;28;20426;-80
2020/12/30 01:58:12;;;;;;;10.70;7.40;;;4.50;99.90;;;;;;5089253;28;20462;-80
2020/12/30 02:00:40;;;;;;;10.77;8.13;;;4.60;99.90;;;;;;5090328;28;20863;-80
2020/12/30 02:03:08;;;;;;;11.63;7.73;;;4.60;99.90;;;;;;5089631;28;20410;-79
2020/12/30 02:05:36;;;;;;;8.97;7.50;;;4.50;99.90;;;;;;5090235;28;20836;-79
2020/12/30 02:08:03;;;;;;;10.60;7.73;;;4.30;99.90;;;;;;5072080;28;20423;-80
2020/12/30 02:10:28;;;;;;;12.07;7.47;;;4.40;99.90;;;;;;5090248;28;20828;-79
2020/12/30 02:12:55;;;;;;;9.17;7.10;;;4.50;99.90;;;;;;5088218;28;20434;-80
2020/12/30 02:15:31;;;;;;;12.17;7.60;;;4.20;99.90;;;;;;5089950;28;20280;-79
2020/12/30 02:17:59;;;;;;;8.33;6.93;;;4.20;99.90;;;;;;5088628;28;20828;-79
2020/12/30 02:20:30;;;;;;;11.03;7.67;;;4.20;99.90;;;;;;5088698;28;20450;-79
2020/12/30 02:23:05;;;;;;;8.90;7.70;;;4.10;99.90;;;;;;5089378;28;20414;-79
2020/12/30 02:25:30;;;;;;;10.40;6.83;;;4.00;99.90;;;;;;5089953;28;20413;-79
2020/12/30 02:27:59;;;;;;;10.70;7.40;;;4.10;99.90;;;;;;5089903;28;20504;-79
2020/12/30 02:30:24;;;;;;;9.30;7.27;;;4.00;99.90;;;;;;5088121;28;21081;-79
2020/12/30 02:32:50;;;;;;;10.27;7.90;;;4.00;99.90;;;;;;5081958;28;20697;-79
2020/12/30 02:35:24;;;;;;;8.63;7.20;;;3.90;99.90;;;;;;5083964;28;20196;-79
2020/12/30 02:37:50;;;;;;;12.67;9.10;;;3.80;99.90;;;;;;5089676;28;20465;-79
2020/12/30 02:40:22;;;;;;;9.03;7.00;;;3.80;99.90;;;;;;5089465;28;20414;-79
2020/12/30 02:42:48;;;;;;;11.90;7.30;;;3.90;99.90;;;;;;5089586;28;20415;-79
2020/12/30 02:45:13;;;;;;;13.27;8.77;;;3.90;99.90;;;;;;5089119;28;20434;-79
2020/12/30 02:47:39;;;;;;;8.27;6.87;;;3.90;99.90;;;;;;5088447;28;20249;-79
2020/12/30 02:50:05;;;;;;;9.10;7.90;;;4.10;99.90;;;;;;5091654;28;20576;-79
2020/12/30 02:52:31;;;;;;;9.57;7.63;;;3.70;99.90;;;;;;5092725;28;20196;-79
2020/12/30 02:54:57;;;;;;;11.50;8.63;;;3.80;99.90;;;;;;5091674;28;20418;-79
2020/12/30 02:57:22;;;;;;;8.87;7.97;;;4.00;99.90;;;;;;5092330;28;20457;-79
2020/12/30 02:59:55;;;;;;;9.53;7.13;;;4.00;99.90;;;;;;5093761;28;20189;-79
2020/12/30 03:02:30;;;;;;;8.27;7.40;;;3.90;99.90;;;;;;5093875;28;20180;-79
2020/12/30 03:04:55;;;;;;;10.83;8.30;;;3.90;99.90;;;;;;5091862;28;20470;-79
2020/12/30 03:07:21;;;;;;;11.60;8.60;;;3.80;99.90;;;;;;5092202;28;20430;-79
2020/12/30 03:09:48;;;;;;;9.30;7.90;;;4.10;99.90;;;;;;5079935;28;20285;-79
2020/12/30 03:12:14;;;;;;;11.37;8.73;;;4.00;99.90;;;;;;5093767;28;20418;-80
2020/12/30 03:14:40;;;;;;;13.93;9.00;;;4.10;99.90;;;;;;5092962;28;20438;-79
2020/12/30 03:17:08;;;;;;;11.77;8.20;;;4.20;99.90;;;;;;5093378;28;20502;-79
2020/12/30 03:19:34;;;;;;;12.00;8.63;;;4.10;99.90;;;;;;5093383;28;20418;-80
2020/12/30 03:21:59;;;;;;;11.23;8.20;;;4.20;99.90;;;;;;5091970;28;20422;-79
2020/12/30 03:24:25;;;;;;;11.97;7.83;;;4.20;99.90;;;;;;5078131;28;20184;-80
2020/12/30 03:26:51;;;;;;;12.47;8.60;;;4.10;99.90;;;;;;5093522;28;20169;-80
2020/12/30 03:29:17;;;;;;;11.00;8.60;;;4.10;99.90;;;;;;5091981;28;20938;-80
2020/12/30 03:31:42;;;;;;;11.03;8.57;;;4.00;99.90;;;;;;5079963;28;20189;-79
2020/12/30 03:34:08;;;;;;;11.33;8.57;;;4.00;99.90;;;;;;5090061;28;20604;-79
2020/12/30 03:36:34;;;;;;;14.90;10.30;;;4.00;99.90;;;;;;5091957;28;20186;-80
2020/12/30 03:39:01;;;;;;;13.27;9.40;;;4.10;99.90;;;;;;5093084;28;20246;-79
2020/12/30 03:41:27;;;;;;;12.87;9.33;;;3.80;99.90;;;;;;5091690;28;20473;-79
2020/12/30 03:43:53;;;;;;;13.57;9.90;;;3.80;99.90;;;;;;5091272;28;20415;-79
2020/12/30 03:46:18;;;;;;;14.17;9.00;;;3.80;99.90;;;;;;5091625;28;20421;-79
2020/12/30 03:48:44;;;;;;;12.63;9.63;;;4.00;99.90;;;;;;5091631;28;20214;-80
2020/12/30 03:51:10;;;;;;;13.30;9.40;;;3.90;99.90;;;;;;5091498;28;20753;-80
2020/12/30 03:53:35;;;;;;;14.40;10.20;;;3.90;99.90;;;;;;5092468;28;20563;-79
2020/12/30 03:56:01;;;;;;;12.93;9.33;;;4.00;99.90;;;;;;5093022;28;20716;-80
2020/12/30 03:58:27;;;;;;;13.50;10.03;;;3.90;99.90;;;;;;5091663;28;20212;-80
2020/12/30 04:00:52;;;;;;;14.10;10.27;;;3.90;99.90;;;;;;5091972;28;20185;-79
2020/12/30 04:03:18;;;;;;;13.70;10.30;;;4.00;99.90;;;;;;5092043;28;20185;-80
2020/12/30 04:05:44;;;;;;;11.70;9.30;;;4.00;99.90;;;;;;5092629;28;20176;-80
2020/12/30 04:08:09;;;;;;;13.13;9.60;;;4.10;99.90;;;;;;5091024;28;20215;-80
2020/12/30 04:10:35;;;;;;;12.77;9.07;;;3.80;99.90;;;;;;5091786;28;20193;-80
2020/12/30 04:13:01;;;;;;;12.63;9.50;;;3.80;99.90;;;;;;5091136;28;20192;-80
2020/12/30 04:15:26;;;;;;;13.50;9.73;;;3.90;99.90;;;;;;5092472;28;20200;-80
2020/12/30 04:17:52;;;;;;;16.53;10.40;;;3.90;99.90;;;;;;5091511;28;20269;-80
2020/12/30 04:20:18;;;;;;;15.27;9.27;;;3.80;99.90;;;;;;5092725;28;20199;-80
2020/12/30 04:22:43;;;;;;;11.33;9.13;;;4.00;99.90;;;;;;5092583;28;20595;-80
2020/12/30 04:25:10;;;;;;;12.63;10.00;;;3.80;99.90;;;;;;5092033;28;20180;-80
2020/12/30 04:27:35;;;;;;;12.43;9.00;;;4.00;99.90;;;;;;5092425;28;20196;-80
2020/12/30 04:30:01;;;;;;;14.73;10.03;;;3.80;99.90;;;;;;5057554;28;20423;-80
2020/12/30 04:32:27;;;;;;;15.83;10.80;;;3.90;99.90;;;;;;5077321;28;20662;-80
2020/12/30 04:34:53;;;;;;;15.80;10.63;;;4.00;99.90;;;;;;5090369;28;20488;-80
2020/12/30 04:37:18;;;;;;;12.93;9.30;;;3.80;99.90;;;;;;5090828;28;20220;-80
2020/12/30 04:39:44;;;;;;;15.87;10.40;;;4.10;99.90;;;;;;5092404;28;20564;-80
2020/12/30 04:42:13;;;;;;;14.60;10.07;;;3.90;99.90;;;;;;5077361;28;20202;-80
2020/12/30 04:44:43;;;;;;;19.23;10.60;;;4.00;99.90;;;;;;5070737;28;20272;-80
2020/12/30 04:47:09;;;;;;;13.13;10.03;;;3.80;99.90;;;;;;5090950;28;20958;-80
2020/12/30 04:49:35;;;;;;;14.50;10.47;;;4.00;99.90;;;;;;5092110;28;20419;-80
2020/12/30 04:52:01;;;;;;;14.30;9.67;;;3.80;99.90;;;;;;5090672;28;20425;-80
2020/12/30 04:54:26;;;;;;;13.63;10.13;;;4.20;99.90;;;;;;5091606;28;20189;-80
2020/12/30 04:57:00;;;;;;;14.37;11.33;;;3.80;99.90;;;;;;5073698;28;20431;-80
2020/12/30 04:59:28;;;;;;;15.90;11.10;;;3.90;99.90;;;;;;5090484;28;20188;-80
2020/12/30 05:02:04;;;;;;;14.77;10.67;;;4.00;99.90;;;;;;5091552;28;20834;-80
2020/12/30 05:04:34;;;;;;;12.73;10.30;;;4.30;99.90;;;;;;5089903;28;20850;-80
2020/12/30 05:07:09;;;;;;;13.93;11.47;;;4.20;99.90;;;;;;5064638;28;20415;-80
2020/12/30 05:09:36;;;;;;;19.60;11.43;;;4.00;99.90;;;;;;5088232;28;20432;-80
2020/12/30 05:12:09;;;;;;;14.00;10.13;;;4.10;99.90;;;;;;5090543;28;20840;-80
2020/12/30 05:14:35;;;;;;;15.53;11.33;;;4.10;99.90;;;;;;5075801;28;20424;-80
2020/12/30 05:17:03;;;;;;;16.17;11.93;;;3.80;99.90;;;;;;5090523;28;20458;-81
2020/12/30 05:19:30;;;;;;;12.80;10.30;;;4.20;99.90;;;;;;5073146;28;20942;-79
2020/12/30 05:21:56;;;;;;;15.23;10.90;;;3.90;99.90;;;;;;5089963;28;20451;-80
2020/12/30 05:24:23;;;;;;;14.00;10.73;;;4.00;99.90;;;;;;5090502;28;20461;-79
2020/12/30 05:26:49;;;;;;;14.17;11.53;;;3.90;99.90;;;;;;5091014;28;20264;-79
2020/12/30 05:29:16;;;;;;;13.50;10.87;;;4.00;99.90;;;;;;5086026;28;20455;-79
2020/12/30 05:31:50;;;;;;;13.50;10.77;;;3.90;99.90;;;;;;5063454;28;20441;-79
2020/12/30 05:34:17;;;;;;;15.57;12.17;;;4.10;99.90;;;;;;5090010;28;20422;-79
2020/12/30 05:36:43;;;;;;;16.37;12.43;;;3.90;99.90;;;;;;5072604;28;20410;-79
2020/12/30 05:39:21;;;;;;;15.10;11.23;;;3.90;99.90;;;;;;5076973;28;20847;-79
2020/12/30 05:41:46;;;;;;;15.33;11.57;;;4.10;99.90;;;;;;5089645;28;20662;-79
2020/12/30 05:44:19;;;;;;;13.70;10.50;;;3.90;99.90;;;;;;5089887;28;20419;-79
2020/12/30 05:46:45;;;;;;;14.17;10.90;;;3.90;99.90;;;;;;5089206;28;20553;-79
2020/12/30 05:49:28;;;;;;;18.00;11.13;;;4.00;99.90;;;;;;5072600;28;20428;-79
2020/12/30 05:51:56;;;;;;;14.50;11.40;;;4.10;99.90;;;;;;5089265;28;20422;-79
2020/12/30 05:54:22;;;;;;;15.20;11.33;;;4.00;99.90;;;;;;5068404;28;20542;-80
2020/12/30 05:56:48;;;;;;;14.50;11.60;;;4.20;99.90;;;;;;5086864;28;20505;-79
2020/12/30 05:59:17;;;;;;;16.37;12.93;;;4.10;99.90;;;;;;5089320;28;20279;-79
2020/12/30 06:01:45;;;;;;;13.77;10.70;;;4.00;99.90;;;;;;5090248;28;20180;-79
2020/12/30 06:04:18;;;;;;;18.10;11.80;;;4.20;99.90;;;;;;5088701;28;20418;-79
2020/12/30 06:06:46;;;;;;;17.40;11.70;;;4.20;99.90;;;;;;5090372;28;20418;-79
2020/12/30 06:09:17;;;;;;;16.10;12.17;;;3.80;99.90;;;;;;5089048;28;20441;-79
2020/12/30 06:11:54;;;;;;;16.40;12.53;;;4.00;99.90;;;;;;5076014;28;20418;-79
2020/12/30 06:14:21;;;;;;;17.50;12.37;;;3.80;99.90;;;;;;5089761;28;20421;-79
2020/12/30 06:16:47;;;;;;;16.63;13.07;;;3.80;99.90;;;;;;5089752;28;20519;-80
2020/12/30 06:19:13;;;;;;;16.13;11.90;;;3.90;99.90;;;;;;5090096;28;20873;-79
2020/12/30 06:21:46;;;;;;;19.47;12.33;;;4.10;99.90;;;;;;5090147;28;20407;-79
2020/12/30 06:24:15;;;;;;;16.87;11.77;;;4.10;99.90;;;;;;5089028;28;20532;-79
2020/12/30 06:26:42;;;;;;;16.73;11.10;;;4.00;99.90;;;;;;5088766;28;20411;-79
2020/12/30 06:29:16;;;;;;;15.93;12.10;;;4.00;99.90;;;;;;5088952;28;20422;-80
2020/12/30 06:31:47;;;;;;;14.50;11.57;;;4.00;99.90;;;;;;5088917;28;20479;-80
2020/12/30 06:34:14;;;;;;;16.90;11.13;;;4.10;99.90;;;;;;5089599;28;20410;-80
2020/12/30 06:36:41;;;;;;;16.70;12.40;;;4.20;99.90;;;;;;5090119;28;20572;-80
2020/12/30 06:39:20;;;;;;;16.13;11.33;;;4.30;99.90;;;;;;5089976;28;20527;-80
2020/12/30 06:42:01;;;;;;;14.90;11.73;;;4.20;99.90;;;;;;5071367;28;20433;-80
2020/12/30 06:44:36;;;;;;;15.50;11.57;;;4.30;99.90;;;;;;5071056;28;20951;-80
2020/12/30 06:47:04;;;;;;;14.30;10.60;;;4.20;99.90;;;;;;5089247;28;20504;-81
2020/12/30 06:49:30;;;;;;;14.63;11.20;;;4.40;99.90;;;;;;5092067;28;20454;-82
2020/12/30 06:51:55;;;;;;;14.83;11.10;;;4.20;99.90;;;;;;5091817;28;20453;-83
2020/12/30 06:54:21;;;;;;;15.53;10.90;;;4.20;99.90;;;;;;5090829;28;20476;-79
2020/12/30 06:56:48;;;;;;;16.90;11.50;;;4.40;99.90;;;;;;5071904;28;20654;-80
2020/12/30 06:59:27;;;;;;;15.37;12.03;;;4.30;99.90;;;;;;5090521;28;20176;-79
2020/12/30 07:01:53;;;;;;;18.00;11.67;;;4.30;99.90;;;;;;5088892;28;20442;-80
2020/12/30 07:04:19;;;;;;;16.10;11.57;;;4.40;99.90;;;;;;5089695;28;20414;-80
2020/12/30 07:06:45;;;;;;;18.73;11.20;;;4.40;99.90;;;;;;5076672;28;20422;-80
2020/12/30 07:09:13;;;;;;;14.63;11.17;;;4.30;99.90;;;;;;5090226;28;20426;-80
2020/12/30 07:11:52;;;;;;;17.37;11.50;;;4.30;99.90;;;;;;5089227;28;20241;-80
2020/12/30 07:14:22;;;;;;;14.87;10.60;;;4.60;99.90;;;;;;5089038;28;20426;-80
2020/12/30 07:16:56;;;;;;;16.10;11.37;;;4.60;99.90;;;;;;5090100;28;20435;-80
2020/12/30 07:19:24;;;;;;;16.30;11.10;;;4.60;99.90;;;;;;5090306;28;20509;-80
2020/12/30 07:21:53;;;;;;;17.17;11.83;;;4.70;99.90;;;;;;5090473;28;20476;-80
2020/12/30 07:24:23;;;;;;;15.77;10.67;;;4.50;99.90;;;;;;5074943;28;20476;-80
2020/12/30 07:26:53;;;;;;;18.40;11.50;;;4.50;99.90;;;;;;5078782;28;20455;-80
2020/12/30 07:29:19;;;;;;;14.03;11.33;;;4.70;99.90;;;;;;5088986;28;20414;-80
2020/12/30 07:31:48;;;;;;;16.23;11.83;;;4.70;99.90;;;;;;5058975;28;20419;-80
2020/12/30 07:34:23;;;;;;;16.80;10.90;;;4.70;99.90;;;;;;5089415;28;20670;-80
2020/12/30 07:36:49;;;;;;;13.77;10.60;;;4.50;99.90;;;;;;5091482;28;20497;-80
2020/12/30 07:39:21;;;;;;;15.30;11.17;;;4.70;99.90;;;;;;5091909;28;20426;-80
2020/12/30 07:41:46;;;;;;;15.10;11.23;;;4.60;99.90;;;;;;5091869;28;20418;-80
2020/12/30 07:44:13;;;;;;;16.10;12.00;;;4.60;99.90;;;;;;5074421;28;20415;-80
2020/12/30 07:46:39;;;;;;;18.20;11.83;;;4.50;99.90;;;;;;5093099;28;20195;-80
2020/12/30 07:49:08;;;;;;;15.67;10.50;;;4.40;99.90;;;;;;5091777;28;20418;-80
2020/12/30 07:51:44;;;;;;;16.93;11.90;;;4.60;99.90;;;;;;5079598;28;20427;-80
2020/12/30 07:54:12;;;;;;;15.70;11.70;;;4.50;99.90;;;;;;5092507;28;20450;-80
2020/12/30 07:56:38;;;;;;;18.10;12.87;;;4.50;99.90;;;;;;5092499;28;20434;-80
2020/12/30 07:59:04;;;;;;;18.43;12.00;;;4.60;99.90;;;;;;5091216;28;20442;-80
2020/12/30 08:01:30;;;;;;;17.60;11.47;;;4.60;99.90;;;;;;5092125;28;20646;-80
2020/12/30 08:04:08;;;;;;;18.90;12.70;;;4.40;99.90;;;;;;5073145;28;20244;-79
2020/12/30 08:06:44;;;;;;;22.73;12.87;;;4.30;99.90;;;;;;5087341;28;20766;-79
2020/12/30 08:09:11;;;;;;;19.83;12.57;;;4.30;99.90;;;;;;5089910;28;21049;-79
2020/12/30 08:11:53;;;;;;;19.53;13.10;;;4.30;99.90;;;;;;5091185;28;20469;-80
2020/12/30 08:14:20;;;;;;;22.37;13.97;;;4.20;99.90;;;;;;5092163;28;20505;-80
2020/12/30 08:17:01;;;;;;;20.40;13.87;;;4.20;99.90;;;;;;5092660;28;20943;-80
2020/12/30 08:19:31;;;;;;;21.07;13.63;;;4.20;99.90;;;;;;5079441;28;20495;-79
2020/12/30 08:22:16;;;;;;;21.40;14.10;;;4.20;99.90;;;;;;5091200;28;20464;-80
2020/12/30 08:24:52;;;;;;;18.43;13.10;;;4.30;99.90;;;;;;5091932;28;20406;-80
2020/12/30 08:27:20;;;;;;;21.30;13.63;;;4.30;99.90;;;;;;5092198;28;20410;-79
2020/12/30 08:29:47;;;;;;;19.10;14.67;;;4.40;99.90;;;;;;5092155;28;20471;-82
2020/12/30 08:32:34;;;;;;;19.83;14.37;;;4.30;99.90;;;;;;5091803;28;21961;-81
2020/12/30 08:35:23;;;;;;;19.67;13.37;;;4.40;99.90;;;;;;5093099;28;20406;-82
2020/12/30 08:38:02;;;;;;;19.93;12.43;;;4.10;99.90;;;;;;5082677;28;20960;-82
2020/12/30 08:40:35;;;;;;;17.60;12.10;;;4.30;99.90;;;;;;5092244;28;20423;-83
2020/12/30 08:43:22;;;;;;;17.97;11.80;;;4.40;99.90;;;;;;5093193;28;20427;-83
2020/12/30 08:45:51;;;;;;;18.83;12.77;;;4.40;99.90;;;;;;5076128;28;20476;-83
2020/12/30 08:48:21;;;;;;;23.30;13.30;;;4.30;99.90;;;;;;5087279;28;20961;-83
2020/12/30 08:50:50;;;;;;;19.10;12.17;;;4.30;99.90;;;;;;5092479;28;20414;-83
2020/12/30 08:53:33;;;;;;;20.03;13.03;;;4.20;99.90;;;;;;5092372;28;20808;-83
2020/12/30 08:55:58;;;;;;;23.57;14.67;;;4.30;99.90;;;;;;5093374;28;20422;-83
2020/12/30 08:58:24;;;;;;;18.57;12.50;;;4.50;99.90;;;;;;5091982;28;20450;-82
2020/12/30 09:00:49;;;;;;;19.50;12.87;;;4.30;99.90;;;;;;5092238;28;20722;-83
2020/12/30 09:03:16;;;;;;;19.20;12.40;;;4.50;99.90;;;;;;5090449;28;20606;-83
2020/12/30 09:05:51;;;;;;;20.93;12.27;;;4.60;99.90;;;;;;5088148;28;20189;-83
2020/12/30 09:08:19;;;;;;;21.33;13.50;;;4.30;99.90;;;;;;5089031;28;20419;-83
2020/12/30 09:10:46;;;;;;;19.70;12.50;;;4.50;99.90;;;;;;5074911;28;20939;-83
2020/12/30 09:13:13;;;;;;;19.67;12.97;;;4.60;99.90;;;;;;5090703;28;20418;-83
2020/12/30 09:15:40;;;;;;;18.43;13.10;;;4.40;99.90;;;;;;5087329;28;21126;-83
2020/12/30 09:18:08;;;;;;;19.97;13.90;;;4.50;99.90;;;;;;5091266;28;20465;-82
2020/12/30 09:20:34;;;;;;;22.43;12.70;;;4.30;99.90;;;;;;5089162;28;20497;-82
2020/12/30 09:23:01;;;;;;;16.57;11.50;;;4.50;99.90;;;;;;5083740;28;20908;-82
2020/12/30 09:25:29;;;;;;;19.30;12.00;;;4.60;99.90;;;;;;5091727;28;20184;-82
2020/12/30 09:27:56;;;;;;;19.20;12.70;;;4.60;99.90;;;;;;5074231;28;20495;-83
2020/12/30 09:30:25;;;;;;;18.83;12.00;;;4.50;99.90;;;;;;5077733;28;20932;-82
2020/12/30 09:32:55;;;;;;;18.20;12.77;;;4.60;99.90;;;;;;5092056;28;20427;-83
2020/12/30 09:35:29;;;;;;;19.90;13.10;;;4.80;99.90;;;;;;5091406;28;20878;-83
2020/12/30 09:37:57;;;;;;;16.83;11.23;;;4.60;99.90;;;;;;5089169;28;20501;-82
2020/12/30 09:40:24;;;;;;;20.10;13.57;;;4.50;99.90;;;;;;5091397;28;20422;-83
2020/12/30 09:42:50;;;;;;;17.90;11.87;;;4.90;99.90;;;;;;5092572;28;20485;-82
2020/12/30 09:45:20;;;;;;;19.27;12.27;;;4.90;99.90;;;;;;5077322;28;20418;-82
2020/12/30 09:47:46;;;;;;;17.37;12.07;;;4.60;99.90;;;;;;5092026;28;20429;-82
2020/12/30 09:50:14;;;;;;;20.13;13.47;;;4.90;99.90;;;;;;5092314;28;20426;-83
2020/12/30 09:52:42;;;;;;;16.07;11.80;;;4.60;99.90;;;;;;5089073;28;20417;-82
2020/12/30 09:55:10;;;;;;;20.30;14.90;;;4.80;99.90;;;;;;5083346;28;20896;-82
2020/12/30 09:57:36;;;;;;;19.80;13.63;;;4.70;99.90;;;;;;5070903;28;20887;-83
2020/12/30 10:00:11;;;;;;;20.00;12.63;;;4.70;99.90;;;;;;5088368;28;20524;-83
2020/12/30 10:02:37;;;;;;;19.13;13.03;;;4.90;99.90;;;;;;5074160;28;20475;-83
2020/12/30 10:05:02;;;;;;;19.20;12.70;;;4.70;99.90;;;;;;5073033;28;20418;-83
2020/12/30 10:07:28;;;;;;;18.60;13.40;;;4.70;99.90;;;;;;5092172;28;20266;-83
2020/12/30 10:09:54;;;;;;;19.17;13.40;;;5.00;99.90;;;;;;5092129;28;20433;-83
2020/12/30 10:12:23;;;;;;;20.07;13.27;;;4.90;99.90;;;;;;5092120;28;20587;-83
2020/12/30 10:14:49;;;;;;;18.97;12.93;;;4.50;99.90;;;;;;5090215;28;20928;-83
2020/12/30 10:17:15;;;;;;;19.10;13.40;;;4.50;99.90;;;;;;5090753;28;20464;-83
2020/12/30 10:19:41;;;;;;;20.40;13.10;;;4.70;99.90;;;;;;5092044;28;21111;-83
2020/12/30 10:22:11;;;;;;;21.10;14.60;;;4.50;99.90;;;;;;5091947;28;20472;-83
2020/12/30 10:24:44;;;;;;;19.40;12.97;;;4.70;99.90;;;;;;5077688;28;20181;-82
2020/12/30 10:27:10;;;;;;;22.27;15.70;;;4.80;99.90;;;;;;5090719;28;20450;-83
2020/12/30 10:29:36;;;;;;;20.50;14.17;;;4.40;99.90;;;;;;5091913;28;20414;-83
2020/12/30 10:32:03;;;;;;;27.83;15.20;;;4.60;99.90;;;;;;5090491;28;20407;-82
2020/12/30 10:34:29;;;;;;;20.37;13.60;;;4.50;99.90;;;;;;5091293;28;20673;-82
2020/12/30 10:36:54;;;;;;;21.57;14.33;;;4.60;99.90;;;;;;5091838;28;20418;-82
2020/12/30 10:39:20;;;;;;;18.63;13.07;;;4.50;99.90;;;;;;5090623;28;20186;-83
2020/12/30 10:41:46;;;;;;;22.80;15.50;;;4.70;99.90;;;;;;5090739;28;20188;-83
2020/12/30 10:44:11;;;;;;;19.80;13.77;;;4.50;99.90;;;;;;5089977;28;20184;-82
2020/12/30 10:46:37;;;;;;;18.80;12.53;;;4.50;99.90;;;;;;5091762;28;20188;-83
2020/12/30 10:49:03;;;;;;;22.43;14.03;;;4.90;99.90;;;;;;5090497;28;20446;-83
2020/12/30 10:51:28;;;;;;;23.73;14.60;;;4.80;99.90;;;;;;5091718;28;20646;-83
2020/12/30 10:53:54;;;;;;;24.80;15.10;;;4.80;99.90;;;;;;5069605;28;20185;-82
2020/12/30 10:56:20;;;;;;;22.43;14.50;;;4.70;99.90;;;;;;5054796;28;20254;-83
2020/12/30 10:58:45;;;;;;;22.53;14.80;;;4.60;99.90;;;;;;5091547;28;20560;-83
2020/12/30 11:01:13;;;;;;;23.50;14.57;;;4.70;99.90;;;;;;5090040;28;20180;-83
2020/12/30 11:03:39;;;;;;;27.30;15.70;;;4.70;99.90;;;;;;5089446;28;20168;-83
2020/12/30 11:06:05;;;;;;;24.83;15.07;;;4.60;99.90;;;;;;5089962;28;20418;-83
2020/12/30 11:08:32;;;;;;;22.30;14.70;;;4.70;99.90;;;;;;5090133;28;20414;-83
2020/12/30 11:11:02;;;;;;;22.60;14.40;;;4.50;99.90;;;;;;5092163;28;20761;-83
2020/12/30 11:13:31;;;;;;;23.60;16.00;;;4.60;99.90;;;;;;5093427;28;20411;-83
2020/12/30 11:15:57;;;;;;;23.03;15.00;;;4.70;99.90;;;;;;5094052;28;20433;-83
2020/12/30 11:18:23;;;;;;;20.17;12.70;;;4.70;99.90;;;;;;5095435;28;20458;-83
2020/12/30 11:20:52;;;;;;;24.33;16.17;;;5.00;99.90;;;;;;5093615;28;20406;-83
2020/12/30 11:23:18;;;;;;;24.13;15.70;;;4.90;99.90;;;;;;5094595;28;20422;-83
2020/12/30 11:25:45;;;;;;;25.00;16.40;;;5.10;99.90;;;;;;5093943;28;20407;-83
2020/12/30 11:28:11;;;;;;;20.97;15.03;;;4.90;99.90;;;;;;5095170;28;20196;-83
2020/12/30 11:30:40;;;;;;;25.77;15.33;;;5.10;99.90;;;;;;5092342;28;20435;-83
2020/12/30 11:33:06;;;;;;;24.30;15.60;;;5.00;99.90;;;;;;5093148;28;20414;-84
2020/12/30 11:35:32;;;;;;;25.30;15.70;;;4.90;99.90;;;;;;5094651;28;20826;-83
2020/12/30 11:37:58;;;;;;;27.10;16.60;;;4.90;99.90;;;;;;5093517;28;20208;-84
2020/12/30 11:40:26;;;;;;;27.30;15.60;;;4.90;99.90;;;;;;5093609;28;20414;-83
2020/12/30 11:42:52;;;;;;;23.50;15.80;;;4.70;99.90;;;;;;5093044;28;20422;-84
2020/12/30 11:45:17;;;;;;;25.67;16.20;;;5.10;99.90;;;;;;5094696;28;20423;-83
2020/12/30 11:47:43;;;;;;;23.33;15.50;;;5.00;99.90;;;;;;5093550;28;20777;-83
2020/12/30 11:50:09;;;;;;;22.00;13.43;;;5.00;99.90;;;;;;5076488;28;20188;-84
2020/12/30 11:52:35;;;;;;;23.90;13.90;;;5.10;99.90;;;;;;5094774;28;20225;-83
2020/12/30 11:55:00;;;;;;;27.27;14.30;;;5.00;99.90;;;;;;5076020;28;20418;-83
2020/12/30 11:57:29;;;;;;;20.77;14.77;;;5.30;99.90;;;;;;5094620;28;20212;-83
2020/12/30 11:59:55;;;;;;;20.23;13.80;;;5.20;99.90;;;;;;5093383;28;20794;-83
2020/12/30 12:02:21;;;;;;;21.93;13.87;;;5.20;99.90;;;;;;5092872;28;20411;-83
2020/12/30 12:04:47;;;;;;;23.80;14.60;;;5.20;99.90;;;;;;5093590;28;20185;-83
2020/12/30 12:07:12;;;;;;;20.00;14.47;;;5.20;99.90;;;;;;5093321;28;20437;-83
2020/12/30 12:09:38;;;;;;;26.00;15.50;;;5.20;99.90;;;;;;5076277;28;20191;-83
2020/12/30 12:12:04;;;;;;;25.73;15.40;;;5.30;99.90;;;;;;5094227;28;20184;-83
2020/12/30 12:14:29;;;;;;;21.53;15.10;;;5.20;99.90;;;;;;5093836;28;20187;-83
2020/12/30 12:16:56;;;;;;;21.40;14.07;;;5.10;99.90;;;;;;5094038;28;20188;-83
2020/12/30 12:19:23;;;;;;;21.50;14.53;;;5.20;99.90;;;;;;5092877;28;20580;-83
2020/12/30 12:21:49;;;;;;;23.60;16.20;;;5.10;99.90;;;;;;5093540;28;20445;-83
2020/12/30 12:24:16;;;;;;;22.30;14.60;;;5.00;99.90;;;;;;5093340;28;20502;-83
2020/12/30 12:26:42;;;;;;;23.43;14.83;;;5.10;99.90;;;;;;5092912;28;20423;-83
2020/12/30 12:29:35;;;;;;;19.60;14.13;;;4.90;99.90;;;;;;5092748;28;20513;-83
2020/12/30 12:32:16;;;;;;;23.37;15.17;;;5.30;99.90;;;;;;5078788;28;20415;-82
2020/12/30 12:34:46;;;;;;;22.93;15.40;;;5.00;99.90;;;;;;5093572;28;20459;-83
2020/12/30 12:37:13;;;;;;;24.20;14.17;;;4.90;99.90;;;;;;5075589;28;20928;-83
2020/12/30 12:39:42;;;;;;;20.63;13.50;;;4.90;99.90;;;;;;5093927;28;20429;-83
2020/12/30 12:42:09;;;;;;;22.17;14.20;;;5.10;99.90;;;;;;5093576;28;20422;-83
2020/12/30 12:44:35;;;;;;;24.10;15.80;;;5.10;99.90;;;;;;5091245;28;20422;-83
2020/12/30 12:47:01;;;;;;;19.53;14.07;;;5.00;99.90;;;;;;5075251;28;20426;-83